Forside
METAR-TAF:

METAR-TAF

Lufthavne :

Chicago O'Hare International Airport

Chicago, Illinois, USA

Breddekreds: 41-58-47N, længdekreds: 087-54-16W, højde: 203 m

Aktuelle vejr

Denne rapport blev lavet for 29 minutter siden, kl. 22:51 UTC
Vind 14 kt fra nordnordøst
Temperatur 26°C
Fugtighed 42%
Tryk 1018 hPa
Sigt: 16.1 km
Nogle få skyer i en højde af 6000 ft

METAR: KORD 172251Z 02014KT 10SM FEW060 26/12 A3006 RMK AO2 SLP176 T02560122

Tid: 18:20 (23:20 UTC)

Vejrudsigter

Denne rapport blev lavet for 2 timer og 27 minutter siden, kl. 20:53 UTC
Foreløbig gælder fra 17 på 21 UTC til 18 på 24 UTC
Vind 11 kt fra nordøst med vindstød på up til 17 kt
Sigt: 10 km
Nogle få skyer i en højde af 5000 ft
Spredte skyer i en højde af 30000 ft
Fra 18 på 0100 UTC
Vind 5 kt fra nordøst
Sigt: 10 km
Nogle få skyer i en højde af 30000 ft
Fra 18 på 1600 UTC
Vind 9 kt fra østnordøst
Sigt: 10 km
Nogle få skyer i en højde af 30000 ft

TAF: KORD 172053Z 1721/1824 05011G17KT P6SM FEW050 SCT300 FM180100 04005KT P6SM FEW300 FM181600 06009KT P6SM FEW300

Vejrobservationer og prognoser fra mere end 4000 lufthavne (METAR og TAF).

De gule og røde prikker repræsenterer de meteorologiske stationer.

Flyt musen over at se navnet på stationen.

Så klik over at se vejr observationer og prognoser.

At skifte det kort: Klik på de grønne knapper med et sort kors for at zoome ind; på den grønne knap med en bindestreg for at zoome ud; eller på de grønne pile for tilstødende kort.


METAR-TAF: